createdAt,value
2022-10-21T00:02:19.006Z,1499
2022-10-21T00:07:37.197Z,1495
2022-10-21T00:12:55.948Z,1490
2022-10-21T00:18:14.747Z,1488
2022-10-21T00:23:33.221Z,1492
2022-10-21T00:28:51.475Z,1493
2022-10-21T00:34:10.299Z,1498
2022-10-21T00:39:28.739Z,1487
2022-10-21T00:44:46.965Z,1481
2022-10-21T00:50:04.928Z,1485
2022-10-21T00:55:23.101Z,1483
2022-10-21T01:00:41.390Z,1480
2022-10-21T01:05:59.437Z,1481
2022-10-21T01:11:17.901Z,1477
2022-10-21T01:16:36.671Z,1483
2022-10-21T01:21:55.171Z,1475
2022-10-21T01:27:13.625Z,1470
2022-10-21T01:32:32.115Z,1472
2022-10-21T01:37:55.890Z,1471
2022-10-21T01:43:14.627Z,1481
2022-10-21T01:48:33.406Z,1477
2022-10-21T01:53:51.625Z,1482
2022-10-21T01:59:10.079Z,1481
2022-10-21T02:04:28.595Z,1479
2022-10-21T02:09:46.799Z,1483
2022-10-21T02:15:04.991Z,1474
2022-10-21T02:20:23.521Z,1476
2022-10-21T02:25:42.302Z,1481
2022-10-21T02:31:00.762Z,1480
2022-10-21T02:36:18.957Z,1474
2022-10-21T02:41:37.761Z,1472
2022-10-21T02:46:57.669Z,1473
2022-10-21T02:52:15.828Z,1482
2022-10-21T02:57:34.656Z,1470
2022-10-21T03:02:53.158Z,1469
2022-10-21T03:08:11.961Z,1472
2022-10-21T03:13:30.725Z,1466
2022-10-21T03:18:49.475Z,1452
2022-10-21T03:24:10.949Z,1452
2022-10-21T03:29:47.120Z,1448
2022-10-21T03:35:05.580Z,1459
2022-10-21T03:40:24.351Z,1461
2022-10-21T03:45:42.868Z,1456
2022-10-21T03:51:01.053Z,1454
2022-10-21T03:56:19.832Z,1456
2022-10-21T04:01:37.862Z,1461
2022-10-21T04:06:56.372Z,1464
2022-10-21T04:12:14.881Z,1471
2022-10-21T04:17:33.654Z,1462
2022-10-21T04:22:52.385Z,1459
2022-10-21T04:28:11.153Z,1464
2022-10-21T04:33:29.387Z,1476
2022-10-21T04:38:47.288Z,1474
2022-10-21T04:44:05.489Z,1230
2022-10-21T04:49:23.729Z,1072
2022-10-21T04:54:41.916Z,1265
2022-10-21T05:00:00.418Z,1363
2022-10-21T05:05:19.257Z,1400
2022-10-21T05:10:37.692Z,1442
2022-10-21T05:15:56.217Z,1453
2022-10-21T05:21:14.398Z,1464
2022-10-21T05:26:32.265Z,1448
2022-10-21T05:31:50.775Z,1456
2022-10-21T05:37:09.011Z,1476
2022-10-21T05:42:27.443Z,1436
2022-10-21T05:47:46.205Z,1403
2022-10-21T05:53:04.999Z,1398
2022-10-21T05:58:23.045Z,1367
2022-10-21T06:03:41.491Z,1380
2022-10-21T06:08:59.887Z,1371
2022-10-21T06:14:18.284Z,1354
2022-10-21T06:19:37.032Z,1338
2022-10-21T06:24:55.257Z,1332
2022-10-21T06:30:13.442Z,1320
2022-10-21T06:35:31.949Z,1006
2022-10-21T06:40:50.453Z,773
2022-10-21T06:46:09.198Z,668
2022-10-21T06:51:27.676Z,624
2022-10-21T06:56:45.924Z,582
2022-10-21T07:02:04.360Z,544
2022-10-21T07:07:22.877Z,519
2022-10-21T07:12:41.394Z,500
2022-10-21T07:17:59.867Z,484
2022-10-21T07:23:18.349Z,473
2022-10-21T07:28:36.819Z,462
2022-10-21T07:33:39.396Z,458
2022-10-21T07:38:57.604Z,471
2022-10-21T07:44:16.463Z,471
2022-10-21T07:49:34.967Z,458
2022-10-21T07:54:53.179Z,451
2022-10-21T08:00:11.702Z,437
2022-10-21T08:05:30.158Z,435
2022-10-21T08:16:07.892Z,435
2022-10-21T08:21:26.091Z,439
2022-10-21T08:26:44.550Z,427
2022-10-21T08:32:03.057Z,419
2022-10-21T08:37:23.471Z,411
2022-10-21T08:42:43.629Z,407
2022-10-21T08:48:02.124Z,516
2022-10-21T08:53:20.587Z,439
2022-10-21T08:58:38.796Z,407
2022-10-21T09:03:56.734Z,448
2022-10-21T09:09:15.066Z,427
2022-10-21T09:14:33.509Z,477
2022-10-21T09:19:51.977Z,473
2022-10-21T09:25:10.512Z,450
2022-10-21T09:30:28.696Z,484
2022-10-21T09:35:46.886Z,507
2022-10-21T09:41:05.629Z,532
2022-10-21T09:46:24.392Z,541
2022-10-21T09:51:42.895Z,549
2022-10-21T09:57:01.359Z,569
2022-10-21T10:02:19.874Z,581
2022-10-21T10:07:38.201Z,608
2022-10-21T10:12:56.409Z,611
2022-10-21T10:18:15.142Z,610
2022-10-21T10:23:33.947Z,614
2022-10-21T10:28:52.420Z,606
2022-10-21T10:34:10.880Z,588
2022-10-21T10:39:29.511Z,572
2022-10-21T10:44:47.715Z,556
2022-10-21T10:50:06.198Z,566
2022-10-21T10:55:24.511Z,604
2022-10-21T11:00:42.961Z,628
2022-10-21T11:06:01.567Z,641
2022-10-21T11:11:20.167Z,635
2022-10-21T11:16:44.963Z,639
2022-10-21T11:22:18.797Z,626
2022-10-21T11:27:37.367Z,624
2022-10-21T11:32:56.977Z,618
2022-10-21T11:38:15.687Z,617
2022-10-21T11:43:34.289Z,610
2022-10-21T11:48:52.663Z,604
2022-10-21T11:54:11.174Z,596
2022-10-21T11:59:29.456Z,590
2022-10-21T12:04:48.250Z,588
2022-10-21T12:10:06.857Z,581
2022-10-21T12:15:25.423Z,584
2022-10-21T12:20:44.164Z,592
2022-10-21T12:26:02.925Z,598
2022-10-21T12:31:21.541Z,598
2022-10-21T12:36:39.699Z,598
2022-10-21T12:41:58.159Z,597
2022-10-21T12:47:16.674Z,601
2022-10-21T12:52:35.162Z,599
2022-10-21T12:57:53.107Z,606
2022-10-21T13:03:11.331Z,616
2022-10-21T13:08:29.855Z,615
2022-10-21T13:13:48.439Z,615
2022-10-21T13:19:06.685Z,628
2022-10-21T13:24:25.226Z,636
2022-10-21T13:29:43.650Z,648
2022-10-21T13:35:01.984Z,649
2022-10-21T13:40:20.998Z,643
2022-10-21T13:45:39.183Z,647
2022-10-21T13:50:57.145Z,671
2022-10-21T13:56:15.888Z,672
2022-10-21T14:01:34.144Z,691
2022-10-21T14:06:52.391Z,698
2022-10-21T14:12:11.136Z,710
2022-10-21T14:17:29.900Z,718
2022-10-21T14:22:48.713Z,745
2022-10-21T14:28:08.418Z,724
2022-10-21T14:33:27.150Z,734
2022-10-21T14:38:45.964Z,725
2022-10-21T14:44:04.124Z,709
2022-10-21T14:49:22.613Z,741
2022-10-21T14:54:41.396Z,740
2022-10-21T14:59:59.408Z,669
2022-10-21T15:05:18.161Z,670
2022-10-21T15:10:36.757Z,708
2022-10-21T15:15:55.493Z,732
2022-10-21T15:21:14.017Z,732
2022-10-21T15:26:32.195Z,765
2022-10-21T15:31:50.675Z,829
2022-10-21T15:37:09.135Z,848
2022-10-21T15:42:27.518Z,791
2022-10-21T15:47:45.749Z,798
2022-10-21T15:53:04.483Z,908
2022-10-21T15:58:22.713Z,983
2022-10-21T16:03:41.199Z,1041
2022-10-21T16:08:59.971Z,1033
2022-10-21T16:14:18.268Z,1023
2022-10-21T16:19:36.455Z,1010
2022-10-21T16:24:54.967Z,979
2022-10-21T16:30:13.742Z,899
2022-10-21T16:35:32.198Z,891
2022-10-21T16:40:51.125Z,882
2022-10-21T16:46:09.688Z,900
2022-10-21T16:51:28.430Z,938
2022-10-21T16:56:47.217Z,936
2022-10-21T17:02:05.719Z,938
2022-10-21T17:07:24.176Z,926
2022-10-21T17:12:42.954Z,1006
2022-10-21T17:18:00.920Z,1016
2022-10-21T17:23:19.635Z,991
2022-10-21T17:28:38.396Z,979
2022-10-21T17:33:57.180Z,980
2022-10-21T17:39:15.642Z,961
2022-10-21T17:44:33.863Z,1010
2022-10-21T17:49:51.781Z,1002
2022-10-21T17:55:10.244Z,998
2022-10-21T18:00:13.107Z,1001
2022-10-21T18:05:31.366Z,1014
2022-10-21T18:10:49.258Z,1008
2022-10-21T18:16:08.030Z,1006
2022-10-21T18:21:26.886Z,997
2022-10-21T18:26:44.768Z,973
2022-10-21T18:32:03.230Z,948
2022-10-21T18:37:22.041Z,922
2022-10-21T18:42:40.570Z,759
2022-10-21T18:47:59.076Z,796
2022-10-21T18:53:17.570Z,823
2022-10-21T18:58:36.324Z,832
2022-10-21T19:03:54.791Z,825
2022-10-21T19:09:13.388Z,820
2022-10-21T19:14:31.974Z,812
2022-10-21T19:19:50.727Z,806
2022-10-21T19:25:09.253Z,797
2022-10-21T19:30:27.676Z,793
2022-10-21T19:35:45.819Z,786
2022-10-21T19:41:04.347Z,785
2022-10-21T19:46:24.809Z,780
2022-10-21T19:51:28.531Z,811
2022-10-21T19:56:47.303Z,856
2022-10-21T20:02:05.504Z,855
2022-10-21T20:07:23.665Z,862
2022-10-21T20:12:42.542Z,862
2022-10-21T20:18:01.083Z,856
2022-10-21T20:23:19.817Z,869
2022-10-21T20:28:38.328Z,914
2022-10-21T20:33:56.782Z,931
2022-10-21T20:39:15.257Z,981
2022-10-21T20:44:34.086Z,1062
2022-10-21T20:49:52.599Z,1086
2022-10-21T20:55:11.079Z,1094
2022-10-21T21:00:32.916Z,1106
2022-10-21T21:05:51.337Z,1135
2022-10-21T21:11:09.858Z,1151
2022-10-21T21:16:28.622Z,1161
2022-10-21T21:21:46.530Z,1161
2022-10-21T21:27:05.007Z,1178
2022-10-21T21:32:23.821Z,1184
2022-10-21T21:37:42.251Z,1204
2022-10-21T21:43:00.464Z,1210
2022-10-21T21:48:19.255Z,1213
2022-10-21T21:53:37.167Z,1232
2022-10-21T21:58:55.784Z,1267
2022-10-21T22:04:13.955Z,1280
2022-10-21T22:09:32.702Z,1291
2022-10-21T22:14:50.922Z,1297
2022-10-21T22:20:09.686Z,1296
2022-10-21T22:25:28.441Z,1307
2022-10-21T22:30:47.215Z,1309
2022-10-21T22:36:05.740Z,1316
2022-10-21T22:41:24.182Z,1326
2022-10-21T22:46:42.953Z,1325
2022-10-21T22:52:01.488Z,1324
2022-10-21T22:57:19.923Z,1325
2022-10-21T23:02:38.456Z,1328
2022-10-21T23:07:57.643Z,1328
2022-10-21T23:13:16.127Z,1331
2022-10-21T23:18:34.889Z,1330
2022-10-21T23:23:53.124Z,1330
2022-10-21T23:29:12.098Z,1325
2022-10-21T23:34:30.874Z,1325
2022-10-21T23:39:49.402Z,1332
2022-10-21T23:45:08.142Z,1341
2022-10-21T23:50:26.917Z,1342
2022-10-21T23:55:45.710Z,1353
